메인 페이지
METAR-TAF:

METAR-TAF

공항 :

셰레메티예보 국제공항

모스크바 Sheremetyevo, 러시아

위도: 55-58N, 경도: 037-25E, 고도: 190m

현재 날씨관측

예보는 33분 전, 11:30시(UTC)에 발표되었습니다.
북북서8kt서북서풍과 풍을 오가는
온도 7°C
습도 70%
기압 1021 hPa
시정 10km 이상
고도 2400ft 상공 구름 많음

METAR: UUEE 201130Z 33004MPS 290V360 9999 BKN024 07/02 Q1021 R24C/CLRD62 R24L/CLRD62 NOSIG

시각: 15:03 (12:03 UTC)

예보

예보는 1 시간 13분 전, 10:50시(UTC)에 발표되었습니다.
예보 대상 시간: 20일 12시부터 21일 12시까지 (UTC)
북북서12kt
시정 10km 이상
고도 2000ft 상공 구름 많음
20일 1700시부터 (UTC)
여러 방향의 바람 2kt
시정: 4000m
고도 1100ft 상공 구름 보통
박무

TAF: UUEE 201050Z 2012/2112 33006MPS 9999 BKN020 TX09/2112Z TN03/2103Z FM201700 VRB01MPS 4000 BR SCT011

4,000개 이상의 공항 관측 자료 및 예보 (METAR 및 TAF 보고).

지도상에서 검색 가능한 기상관측소가 노란 점과 빨간 점으로 표시되어 있습니다.

기상관측소 명을 보려면 표시 위로 마우스를 이동하세요.

날씨 관측과 예보를 보려면 클릭하세요.

지도 변경 : 확대하려면 엑스 표시가 있는 녹색 버튼, 축소하려면 빼기 표시가 있는 녹색 버튼, 다음 페이지의 지도를 보려면 녹색 화살표를 클릭하세요.


METAR-TAF: